createdAt,value
2019-06-08T00:01:53.357Z,25.70
2019-06-08T00:04:23.001Z,20.83
2019-06-08T00:06:52.573Z,14.40
2019-06-08T00:09:24.018Z,22.30
2019-06-08T00:11:54.021Z,25.37
2019-06-08T00:14:23.602Z,20.57
2019-06-08T00:16:53.202Z,23.70
2019-06-08T00:19:23.675Z,18.07
2019-06-08T00:21:53.409Z,24.23
2019-06-08T00:24:24.089Z,24.17
2019-06-08T00:26:54.520Z,26.50
2019-06-08T00:29:24.866Z,26.62
2019-06-08T00:31:54.571Z,26.43
2019-06-08T00:34:24.858Z,27.67
2019-06-08T00:36:55.288Z,31.47
2019-06-08T00:39:25.627Z,21.83
2019-06-08T00:41:55.304Z,27.43
2019-06-08T00:44:25.723Z,15.47
2019-06-08T00:46:56.126Z,25.93
2019-06-08T00:49:26.590Z,23.87
2019-06-08T00:51:56.986Z,23.57
2019-06-08T00:54:27.349Z,25.17
2019-06-08T00:56:57.708Z,24.40
2019-06-08T00:59:27.422Z,19.83
2019-06-08T01:01:57.711Z,23.23
2019-06-08T01:04:29.141Z,21.67
2019-06-08T01:06:58.907Z,29.80
2019-06-08T01:09:28.498Z,18.23
2019-06-08T01:11:58.759Z,13.43
2019-06-08T01:14:29.112Z,24.37
2019-06-08T01:16:58.824Z,13.17
2019-06-08T01:19:29.691Z,15.03
2019-06-08T01:22:00.177Z,11.60
2019-06-08T01:24:30.045Z,6.35
2019-06-08T01:27:00.376Z,14.57
2019-06-08T01:29:30.749Z,10.70
2019-06-08T01:32:01.128Z,9.07
2019-06-08T01:34:31.544Z,12.90
2019-06-08T01:37:01.932Z,10.53
2019-06-08T01:39:32.540Z,14.40
2019-06-08T01:42:02.466Z,14.83
2019-06-08T01:44:32.744Z,18.37
2019-06-08T01:47:03.154Z,10.23
2019-06-08T01:49:32.824Z,16.87
2019-06-08T01:52:03.114Z,17.53
2019-06-08T01:54:33.489Z,13.00
2019-06-08T01:57:03.191Z,10.93
2019-06-08T01:59:34.686Z,10.90
2019-06-08T02:02:04.088Z,9.60
2019-06-08T02:04:34.825Z,17.40
2019-06-08T02:07:04.858Z,15.70
2019-06-08T02:09:34.839Z,17.90
2019-06-08T02:12:04.671Z,15.57
2019-06-08T02:14:35.395Z,20.53
2019-06-08T02:17:05.258Z,19.50
2019-06-08T02:19:34.879Z,16.83
2019-06-08T02:22:04.580Z,13.43
2019-06-08T02:24:35.379Z,12.17
2019-06-08T02:27:05.112Z,12.27
2019-06-08T02:29:35.810Z,11.47
2019-06-08T02:32:05.472Z,10.60
2019-06-08T02:34:37.535Z,13.07
2019-06-08T02:37:07.135Z,13.47
2019-06-08T02:39:38.488Z,15.77
2019-06-08T02:42:08.782Z,14.93
2019-06-08T02:44:38.489Z,16.13
2019-06-08T02:47:08.089Z,19.90
2019-06-08T02:49:39.573Z,25.03
2019-06-08T02:52:10.683Z,21.73
2019-06-08T02:54:41.177Z,16.00
2019-06-08T02:57:12.543Z,18.77
2019-06-08T02:59:42.400Z,12.57
2019-06-08T03:02:13.215Z,18.87
2019-06-08T03:04:42.843Z,20.83
2019-06-08T03:07:13.147Z,23.50
2019-06-08T03:09:43.704Z,24.67
2019-06-08T03:12:14.729Z,23.43
2019-06-08T03:14:44.883Z,17.60
2019-06-08T03:17:14.532Z,23.33
2019-06-08T03:19:44.143Z,21.50
2019-06-08T03:22:13.741Z,22.47
2019-06-08T03:24:44.137Z,20.73
2019-06-08T03:27:13.880Z,22.70
2019-06-08T03:29:44.010Z,16.30
2019-06-08T03:32:13.821Z,17.80
2019-06-08T03:34:53.884Z,18.67
2019-06-08T03:37:16.179Z,28.17
2019-06-08T03:39:45.872Z,31.43
2019-06-08T03:42:15.508Z,20.80
2019-06-08T03:44:45.769Z,14.80
2019-06-08T03:47:15.497Z,24.10
2019-06-08T03:49:54.850Z,24.77
2019-06-08T03:52:16.343Z,26.83
2019-06-08T03:54:47.073Z,26.87
2019-06-08T03:57:16.872Z,23.93
2019-06-08T03:59:47.825Z,13.77
2019-06-08T04:02:17.525Z,18.57
2019-06-08T04:04:47.797Z,23.40
2019-06-08T04:07:18.468Z,18.53
2019-06-08T04:09:48.043Z,20.23
2019-06-08T04:12:18.352Z,16.37
2019-06-08T04:14:50.100Z,17.60
2019-06-08T04:17:20.208Z,13.90
2019-06-08T04:20:09.640Z,9.03
2019-06-08T04:22:21.054Z,13.93
2019-06-08T04:24:51.327Z,12.17
2019-06-08T04:27:21.033Z,8.07
2019-06-08T04:29:50.643Z,10.83
2019-06-08T04:32:20.255Z,11.67
2019-06-08T04:34:50.510Z,10.57
2019-06-08T04:37:20.219Z,11.90
2019-06-08T04:39:50.891Z,17.13
2019-06-08T04:42:20.588Z,9.47
2019-06-08T04:44:50.821Z,8.87
2019-06-08T04:47:20.530Z,11.50
2019-06-08T04:49:50.068Z,8.57
2019-06-08T04:52:19.673Z,7.30
2019-06-08T04:54:49.981Z,9.70
2019-06-08T04:57:19.671Z,11.73
2019-06-08T04:59:50.431Z,13.50
2019-06-08T05:02:20.188Z,11.60
2019-06-08T05:04:50.514Z,18.73
2019-06-08T05:07:20.218Z,17.70
2019-06-08T05:09:49.862Z,13.23
2019-06-08T05:12:20.225Z,9.33
2019-06-08T05:14:50.735Z,14.23
2019-06-08T05:17:20.488Z,11.87
2019-06-08T05:19:50.643Z,9.97
2019-06-08T05:22:21.282Z,13.23
2019-06-08T05:24:51.542Z,12.93
2019-06-08T05:27:21.977Z,7.87
2019-06-08T05:29:51.764Z,9.53
2019-06-08T05:32:21.558Z,7.20
2019-06-08T05:34:51.202Z,11.20
2019-06-08T05:37:21.545Z,6.20
2019-06-08T05:39:51.383Z,5.80
2019-06-08T05:42:21.728Z,6.00
2019-06-08T05:44:51.505Z,10.10
2019-06-08T05:47:21.187Z,10.20
2019-06-08T05:49:50.826Z,13.57
2019-06-08T05:52:21.236Z,7.83
2019-06-08T05:54:51.650Z,10.43
2019-06-08T05:57:21.624Z,9.63
2019-06-08T05:59:51.291Z,7.77
2019-06-08T06:02:20.952Z,7.30
2019-06-08T06:04:53.420Z,9.93
2019-06-08T06:07:21.966Z,7.57
2019-06-08T06:09:51.575Z,10.58
2019-06-08T06:12:21.832Z,10.50
2019-06-08T06:14:51.513Z,5.80
2019-06-08T06:17:21.752Z,12.00
2019-06-08T06:19:51.628Z,8.30
2019-06-08T06:22:21.420Z,7.40
2019-06-08T06:24:51.992Z,10.03
2019-06-08T06:27:21.719Z,9.23
2019-06-08T06:29:52.018Z,10.87
2019-06-08T06:32:21.773Z,10.50
2019-06-08T06:34:52.219Z,21.30
2019-06-08T06:37:22.606Z,16.23
2019-06-08T06:39:52.444Z,17.93
2019-06-08T06:42:24.920Z,16.53
2019-06-08T06:44:54.824Z,28.70
2019-06-08T06:47:24.535Z,17.60
2019-06-08T06:49:54.144Z,26.67
2019-06-08T06:52:24.458Z,17.97
2019-06-08T06:54:54.139Z,15.67
2019-06-08T06:57:23.750Z,19.80
2019-06-08T06:59:54.164Z,20.90
2019-06-08T07:02:24.915Z,25.60
2019-06-08T07:04:54.619Z,21.53
2019-06-08T07:07:24.266Z,23.20
2019-06-08T07:09:54.940Z,22.17
2019-06-08T07:12:25.320Z,24.20
2019-06-08T07:14:55.485Z,22.13
2019-06-08T07:17:25.219Z,18.67
2019-06-08T07:19:54.841Z,20.87
2019-06-08T07:22:25.148Z,22.60
2019-06-08T07:24:55.684Z,20.70
2019-06-08T07:27:25.586Z,18.32
2019-06-08T07:29:55.272Z,23.13
2019-06-08T07:32:25.694Z,27.20
2019-06-08T07:34:55.530Z,21.47
2019-06-08T07:37:25.213Z,26.73
2019-06-08T07:39:56.163Z,24.13
2019-06-08T07:42:26.031Z,22.20
2019-06-08T07:44:55.740Z,31.40
2019-06-08T07:47:25.464Z,33.73
2019-06-08T07:49:55.674Z,29.70
2019-06-08T07:52:25.373Z,29.00
2019-06-08T07:54:56.669Z,26.57
2019-06-08T07:57:26.537Z,28.40
2019-06-08T07:59:56.467Z,21.53
2019-06-08T08:02:26.121Z,34.10
2019-06-08T08:04:56.720Z,27.47
2019-06-08T08:07:26.679Z,24.03
2019-06-08T08:09:57.115Z,27.27
2019-06-08T08:12:27.069Z,23.53
2019-06-08T08:14:58.004Z,26.77
2019-06-08T08:17:28.082Z,26.17
2019-06-08T08:19:59.307Z,30.00
2019-06-08T08:22:29.612Z,25.17
2019-06-08T08:25:04.160Z,34.03
2019-06-08T08:27:31.291Z,28.13
2019-06-08T08:30:02.088Z,32.07
2019-06-08T08:32:32.044Z,23.73
2019-06-08T08:35:02.973Z,30.03
2019-06-08T08:37:33.686Z,28.80
2019-06-08T08:40:03.564Z,19.70
2019-06-08T08:42:33.854Z,30.37
2019-06-08T08:45:07.887Z,27.03
2019-06-08T08:47:38.441Z,33.75
2019-06-08T08:50:07.681Z,29.97
2019-06-08T08:52:40.700Z,23.30
2019-06-08T08:55:09.850Z,23.80
2019-06-08T08:57:41.643Z,14.70
2019-06-08T09:00:11.708Z,23.67
2019-06-08T09:02:42.222Z,27.17
2019-06-08T09:05:12.121Z,21.27
2019-06-08T09:07:41.771Z,17.53
2019-06-08T09:10:12.941Z,21.63
2019-06-08T09:12:43.205Z,20.50
2019-06-08T09:15:13.249Z,24.00
2019-06-08T09:17:43.569Z,22.67
2019-06-08T09:20:15.950Z,24.43
2019-06-08T09:22:53.947Z,25.40
2019-06-08T09:25:18.212Z,22.90
2019-06-08T09:27:48.405Z,24.60
2019-06-08T09:30:18.559Z,37.23
2019-06-08T09:32:49.108Z,21.00
2019-06-08T09:35:21.364Z,21.73
2019-06-08T09:37:54.513Z,23.33
2019-06-08T09:40:31.928Z,31.17
2019-06-08T09:43:06.315Z,23.70
2019-06-08T09:45:30.925Z,20.17
2019-06-08T09:48:03.978Z,30.90
2019-06-08T09:50:32.207Z,15.03
2019-06-08T09:53:14.859Z,18.10
2019-06-08T09:55:34.097Z,20.70
2019-06-08T09:58:07.959Z,24.50
2019-06-08T10:00:37.898Z,22.53
2019-06-08T10:03:09.372Z,20.87
2019-06-08T10:05:39.409Z,33.13
2019-06-08T10:08:09.638Z,19.87
2019-06-08T10:10:39.528Z,18.57
2019-06-08T10:13:09.947Z,23.07
2019-06-08T10:15:41.717Z,22.60
2019-06-08T10:18:11.501Z,20.40
2019-06-08T10:20:41.174Z,22.93
2019-06-08T10:23:27.229Z,23.43
2019-06-08T10:25:42.951Z,22.77
2019-06-08T10:28:15.900Z,26.37
2019-06-08T10:30:44.108Z,25.40
2019-06-08T10:33:13.801Z,17.30
2019-06-08T10:35:43.571Z,21.20
2019-06-08T10:38:13.273Z,15.13
2019-06-08T10:41:07.891Z,19.23
2019-06-08T10:43:33.667Z,20.33
2019-06-08T10:46:10.056Z,18.23
2019-06-08T10:48:37.517Z,18.97
2019-06-08T10:51:10.484Z,18.80
2019-06-08T10:53:51.911Z,17.87
2019-06-08T10:56:12.317Z,23.40
2019-06-08T10:58:42.323Z,20.82
2019-06-08T11:01:13.153Z,14.90
2019-06-08T11:03:43.793Z,14.80
2019-06-08T11:06:14.264Z,13.70
2019-06-08T11:08:44.679Z,14.83
2019-06-08T11:11:19.600Z,19.43
2019-06-08T11:13:50.031Z,19.32
2019-06-08T11:16:20.383Z,19.33
2019-06-08T11:18:51.112Z,17.13
2019-06-08T11:21:21.779Z,14.60
2019-06-08T11:24:05.787Z,14.80
2019-06-08T11:26:24.769Z,13.63
2019-06-08T11:28:55.020Z,17.80
2019-06-08T11:31:24.791Z,14.13
2019-06-08T11:33:54.519Z,14.40
2019-06-08T11:36:28.058Z,11.97
2019-06-08T11:38:59.207Z,14.97
2019-06-08T11:41:29.056Z,15.20
2019-06-08T11:44:00.096Z,18.83
2019-06-08T11:46:31.375Z,21.87
2019-06-08T11:49:05.851Z,16.93
2019-06-08T11:51:33.041Z,18.77
2019-06-08T11:54:04.945Z,17.33
2019-06-08T11:56:37.529Z,12.85
2019-06-08T11:59:07.306Z,19.77
2019-06-08T12:01:36.858Z,13.73
2019-06-08T12:04:07.738Z,17.20
2019-06-08T12:06:38.187Z,13.10
2019-06-08T12:09:09.509Z,18.00
2019-06-08T12:11:40.722Z,22.07
2019-06-08T12:14:12.701Z,18.97
2019-06-08T12:16:42.685Z,19.30
2019-06-08T12:19:15.561Z,11.17
2019-06-08T12:21:44.327Z,13.07
2019-06-08T12:24:14.428Z,18.90
2019-06-08T12:26:47.574Z,16.30
2019-06-08T12:29:18.736Z,20.50
2019-06-08T12:31:48.081Z,14.33
2019-06-08T12:34:18.790Z,15.83
2019-06-08T12:36:49.091Z,15.80
2019-06-08T12:39:21.468Z,16.57
2019-06-08T12:41:51.882Z,15.17
2019-06-08T12:44:22.238Z,17.77
2019-06-08T12:46:52.855Z,14.93
2019-06-08T12:49:23.205Z,19.23
2019-06-08T12:51:53.601Z,16.43
2019-06-08T12:54:23.942Z,18.10
2019-06-08T12:56:54.308Z,19.40
2019-06-08T12:59:24.709Z,13.70
2019-06-08T13:01:54.752Z,12.00
2019-06-08T13:04:25.125Z,16.27
2019-06-08T13:06:55.642Z,16.77
2019-06-08T13:09:29.711Z,15.63
2019-06-08T13:11:59.433Z,19.03
2019-06-08T13:14:30.142Z,15.23
2019-06-08T13:17:01.217Z,17.20
2019-06-08T13:19:31.108Z,18.15
2019-06-08T13:22:01.379Z,20.10
2019-06-08T13:24:31.839Z,17.03
2019-06-08T13:27:02.177Z,24.23
2019-06-08T13:29:32.684Z,22.80
2019-06-08T13:32:03.077Z,15.53
2019-06-08T13:34:33.486Z,18.60
2019-06-08T13:37:03.840Z,21.37
2019-06-08T13:39:33.570Z,15.72
2019-06-08T13:42:03.877Z,20.97
2019-06-08T13:44:33.640Z,21.17
2019-06-08T13:47:03.920Z,19.97
2019-06-08T13:49:34.283Z,14.87
2019-06-08T13:52:04.050Z,18.20
2019-06-08T13:54:34.306Z,9.70
2019-06-08T13:57:04.781Z,13.67
2019-06-08T13:59:35.147Z,18.90
2019-06-08T14:02:04.876Z,15.47
2019-06-08T14:04:39.443Z,15.50
2019-06-08T14:07:07.798Z,15.43
2019-06-08T14:09:38.261Z,13.67
2019-06-08T14:12:08.030Z,20.63
2019-06-08T14:14:39.855Z,14.97
2019-06-08T14:17:08.881Z,16.20
2019-06-08T14:19:38.673Z,19.17
2019-06-08T14:22:10.512Z,12.13
2019-06-08T14:24:39.553Z,16.77
2019-06-08T14:27:09.166Z,11.63
2019-06-08T14:29:38.802Z,16.73
2019-06-08T14:32:09.103Z,13.67
2019-06-08T14:34:38.961Z,15.67
2019-06-08T14:37:08.749Z,20.73
2019-06-08T14:39:38.390Z,13.33
2019-06-08T14:42:08.648Z,20.90
2019-06-08T14:44:38.988Z,17.10
2019-06-08T14:47:14.717Z,13.27
2019-06-08T14:49:45.564Z,17.33
2019-06-08T14:52:15.175Z,14.77
2019-06-08T14:54:45.502Z,20.53
2019-06-08T14:57:15.197Z,23.27
2019-06-08T14:59:45.464Z,19.13
2019-06-08T15:02:17.760Z,16.33
2019-06-08T15:04:48.474Z,15.77
2019-06-08T15:07:22.942Z,15.97
2019-06-08T15:09:50.179Z,14.83
2019-06-08T15:12:19.953Z,15.83
2019-06-08T15:14:50.330Z,20.53
2019-06-08T15:17:21.864Z,19.80
2019-06-08T15:19:52.391Z,20.73
2019-06-08T15:22:26.803Z,19.63
2019-06-08T15:24:58.080Z,15.97
2019-06-08T15:27:32.792Z,15.37
2019-06-08T15:29:59.954Z,13.47
2019-06-08T15:32:35.012Z,14.90
2019-06-08T15:35:03.854Z,16.23
2019-06-08T15:37:37.949Z,19.35
2019-06-08T15:40:07.755Z,19.43
2019-06-08T15:42:37.501Z,22.67
2019-06-08T15:45:08.315Z,19.57
2019-06-08T15:47:40.777Z,16.60
2019-06-08T15:50:10.539Z,12.40
2019-06-08T15:52:41.059Z,13.83
2019-06-08T15:55:11.699Z,15.50
2019-06-08T15:57:41.610Z,16.40
2019-06-08T16:00:12.338Z,14.37
2019-06-08T16:02:42.083Z,15.20
2019-06-08T16:05:12.618Z,18.10
2019-06-08T16:07:42.615Z,18.40
2019-06-08T16:10:12.296Z,17.53
2019-06-08T16:12:41.989Z,20.72
2019-06-08T16:15:12.366Z,17.07
2019-06-08T16:17:42.180Z,23.53
2019-06-08T16:20:12.855Z,16.93
2019-06-08T16:22:43.576Z,19.30
2019-06-08T16:25:14.198Z,18.67
2019-06-08T16:27:44.082Z,23.17
2019-06-08T16:30:14.122Z,14.63
2019-06-08T16:32:43.809Z,18.00
2019-06-08T16:35:14.542Z,15.50
2019-06-08T16:37:45.085Z,22.23
2019-06-08T16:40:15.821Z,18.63
2019-06-08T16:42:46.275Z,16.40
2019-06-08T16:45:16.944Z,17.50
2019-06-08T16:47:46.821Z,17.00
2019-06-08T16:50:24.640Z,19.67
2019-06-08T16:52:47.714Z,19.73
2019-06-08T16:55:17.579Z,16.73
2019-06-08T16:57:47.229Z,16.40
2019-06-08T17:00:30.302Z,16.57
2019-06-08T17:02:49.927Z,16.17
2019-06-08T17:05:20.668Z,15.60
2019-06-08T17:07:51.111Z,15.23
2019-06-08T17:10:21.514Z,18.07
2019-06-08T17:12:52.298Z,16.40
2019-06-08T17:15:23.288Z,11.07
2019-06-08T17:17:53.129Z,13.43
2019-06-08T17:20:22.833Z,18.93
2019-06-08T17:22:53.215Z,14.90
2019-06-08T17:25:22.968Z,22.60
2019-06-08T17:27:53.296Z,16.27
2019-06-08T17:30:23.682Z,21.57
2019-06-08T17:32:53.378Z,18.40
2019-06-08T17:35:23.655Z,18.67
2019-06-08T17:37:53.339Z,12.43
2019-06-08T17:40:23.634Z,17.47
2019-06-08T17:42:53.965Z,21.13
2019-06-08T17:45:24.367Z,18.53
2019-06-08T17:47:54.076Z,20.77
2019-06-08T17:50:23.709Z,17.40
2019-06-08T17:52:54.009Z,14.77
2019-06-08T17:55:23.724Z,17.00
2019-06-08T17:57:54.135Z,16.90
2019-06-08T18:00:24.560Z,19.93
2019-06-08T18:02:57.730Z,21.23
2019-06-08T18:05:28.326Z,13.47
2019-06-08T18:07:58.557Z,16.60
2019-06-08T18:10:29.491Z,17.73
2019-06-08T18:13:00.050Z,23.83
2019-06-08T18:15:29.844Z,19.40
2019-06-08T18:18:00.242Z,17.40
2019-06-08T18:20:30.097Z,16.85
2019-06-08T18:23:00.630Z,16.70
2019-06-08T18:25:30.422Z,17.83
2019-06-08T18:28:09.140Z,19.50
2019-06-08T18:30:32.849Z,13.73
2019-06-08T18:33:03.362Z,20.80
2019-06-08T18:35:35.683Z,21.00
2019-06-08T18:38:07.304Z,17.17
2019-06-08T18:40:40.184Z,12.73
2019-06-08T18:43:10.214Z,15.93
2019-06-08T18:45:41.478Z,16.87
2019-06-08T18:48:11.224Z,21.60
2019-06-08T18:50:42.137Z,19.37
2019-06-08T18:53:12.415Z,16.77
2019-06-08T18:55:44.018Z,20.03
2019-06-08T18:58:23.790Z,15.87
2019-06-08T19:00:49.565Z,16.13
2019-06-08T19:03:17.203Z,20.20
2019-06-08T19:05:50.417Z,15.03
2019-06-08T19:08:20.222Z,16.87
2019-06-08T19:10:50.487Z,17.17
2019-06-08T19:13:21.375Z,18.60
2019-06-08T19:15:53.049Z,18.07
2019-06-08T19:18:22.393Z,16.73
2019-06-08T19:20:53.497Z,22.50
2019-06-08T19:23:24.068Z,12.87
2019-06-08T19:25:54.453Z,21.27
2019-06-08T19:28:35.828Z,16.40
2019-06-08T19:30:58.168Z,16.20
2019-06-08T19:33:28.216Z,19.00
2019-06-08T19:35:58.443Z,21.27
2019-06-08T19:38:28.841Z,21.50
2019-06-08T19:40:59.873Z,17.90
2019-06-08T19:43:30.797Z,18.17
2019-06-08T19:46:00.713Z,15.80
2019-06-08T19:48:31.473Z,19.07
2019-06-08T19:51:01.282Z,18.40
2019-06-08T19:53:31.047Z,18.63
2019-06-08T19:56:01.405Z,21.73
2019-06-08T19:58:31.232Z,21.13
2019-06-08T20:01:01.660Z,17.90
2019-06-08T20:03:32.151Z,20.40
2019-06-08T20:06:02.000Z,23.57
2019-06-08T20:08:31.734Z,29.33
2019-06-08T20:11:02.130Z,27.17
2019-06-08T20:13:32.642Z,24.40
2019-06-08T20:16:02.626Z,19.43
2019-06-08T20:18:32.315Z,22.33
2019-06-08T20:21:02.702Z,18.27
2019-06-08T20:23:33.218Z,19.93
2019-06-08T20:26:03.701Z,26.47
2019-06-08T20:28:33.464Z,16.75
2019-06-08T20:31:03.921Z,20.40
2019-06-08T20:33:34.339Z,18.70
2019-06-08T20:36:04.745Z,19.60
2019-06-08T20:38:38.770Z,20.30
2019-06-08T20:41:07.596Z,23.27
2019-06-08T20:43:38.110Z,25.33
2019-06-08T20:46:09.454Z,25.67
2019-06-08T20:48:39.172Z,26.03
2019-06-08T20:51:09.464Z,21.63
2019-06-08T20:53:39.256Z,17.60
2019-06-08T20:56:08.905Z,19.53
2019-06-08T20:58:38.587Z,18.27
2019-06-08T21:01:08.869Z,17.27
2019-06-08T21:03:38.587Z,14.57
2019-06-08T21:06:08.880Z,13.93
2019-06-08T21:08:38.619Z,21.60
2019-06-08T21:11:08.945Z,23.07
2019-06-08T21:13:38.681Z,18.60
2019-06-08T21:16:08.287Z,17.07
2019-06-08T21:18:38.039Z,20.17
2019-06-08T21:21:08.345Z,18.33
2019-06-08T21:23:37.985Z,21.60
2019-06-08T21:26:08.246Z,18.30
2019-06-08T21:28:38.511Z,15.20
2019-06-08T21:31:08.943Z,16.77
2019-06-08T21:33:38.653Z,16.97
2019-06-08T21:36:08.961Z,26.30
2019-06-08T21:38:38.706Z,24.37
2019-06-08T21:41:08.980Z,25.13
2019-06-08T21:43:38.707Z,24.93
2019-06-08T21:46:09.003Z,28.83
2019-06-08T21:48:38.741Z,19.40
2019-06-08T21:51:09.130Z,19.70
2019-06-08T21:53:38.882Z,19.13
2019-06-08T21:56:08.521Z,19.60
2019-06-08T21:58:38.926Z,16.33
2019-06-08T22:01:09.730Z,17.70
2019-06-08T22:03:40.130Z,23.33
2019-06-08T22:06:10.526Z,20.40
2019-06-08T22:08:40.938Z,20.57
2019-06-08T22:11:11.357Z,18.37
2019-06-08T22:13:41.771Z,16.27
2019-06-08T22:16:12.345Z,21.70
2019-06-08T22:18:42.748Z,14.13
2019-06-08T22:21:12.493Z,20.57
2019-06-08T22:23:42.080Z,22.20
2019-06-08T22:26:12.361Z,20.23
2019-06-08T22:28:42.081Z,15.67
2019-06-08T22:31:11.726Z,17.50
2019-06-08T22:33:41.992Z,21.63
2019-06-08T22:36:12.743Z,24.83
2019-06-08T22:38:42.537Z,20.50
2019-06-08T22:41:12.876Z,14.87
2019-06-08T22:43:42.614Z,21.87
2019-06-08T22:46:12.927Z,23.47
2019-06-08T22:48:42.649Z,18.90
2019-06-08T22:51:13.047Z,22.80
2019-06-08T22:53:42.720Z,18.83
2019-06-08T22:56:13.032Z,23.80
2019-06-08T22:58:42.802Z,21.90
2019-06-08T23:01:13.241Z,20.67
2019-06-08T23:03:42.914Z,19.93
2019-06-08T23:06:13.194Z,15.47
2019-06-08T23:08:42.940Z,19.83
2019-06-08T23:11:14.585Z,18.80
2019-06-08T23:13:47.308Z,22.97
2019-06-08T23:16:18.158Z,14.80
2019-06-08T23:18:48.725Z,25.47
2019-06-08T23:21:20.216Z,28.60
2019-06-08T23:23:50.594Z,19.90
2019-06-08T23:26:20.314Z,16.77
2019-06-08T23:28:50.689Z,24.67
2019-06-08T23:31:25.567Z,16.83
2019-06-08T23:33:53.247Z,24.83
2019-06-08T23:36:46.958Z,20.23
2019-06-08T23:38:56.941Z,25.07
2019-06-08T23:41:27.569Z,23.07
2019-06-08T23:43:57.906Z,24.10
2019-06-08T23:46:28.291Z,25.53
2019-06-08T23:49:00.617Z,21.80
2019-06-08T23:51:38.151Z,22.62
2019-06-08T23:54:10.486Z,23.73
2019-06-08T23:56:41.822Z,31.43
2019-06-08T23:59:12.184Z,16.40
